createdAt,value
2023-03-13T00:01:19.365Z,99.34
2023-03-13T00:03:47.550Z,97.53
2023-03-13T00:06:15.473Z,98.73
2023-03-13T00:08:44.705Z,98.33
2023-03-13T00:11:15.181Z,98.20
2023-03-13T00:13:45.469Z,98.26
2023-03-13T00:16:13.859Z,97.94
2023-03-13T00:18:47.295Z,99.51
2023-03-13T00:21:15.467Z,98.24
2023-03-13T00:23:43.339Z,99.02
2023-03-13T00:26:13.030Z,98.48
2023-03-13T00:28:42.438Z,98.01
2023-03-13T00:31:13.581Z,98.21
2023-03-13T00:33:43.767Z,98.56
2023-03-13T00:36:14.480Z,99.05
2023-03-13T00:38:42.895Z,98.77
2023-03-13T00:41:12.984Z,98.12
2023-03-13T00:43:42.157Z,99.81
2023-03-13T00:46:12.091Z,97.60
2023-03-13T00:48:39.928Z,97.99
2023-03-13T00:51:08.789Z,98.37
2023-03-13T00:53:37.342Z,98.40
2023-03-13T00:56:07.442Z,98.10
2023-03-13T00:58:37.006Z,98.10
2023-03-13T01:01:09.841Z,98.77
2023-03-13T01:03:40.858Z,98.24
2023-03-13T01:06:12.868Z,98.80
2023-03-13T01:08:41.036Z,99.23
2023-03-13T01:11:11.189Z,99.46
2023-03-13T01:13:39.554Z,99.72
2023-03-13T01:16:10.186Z,100.00
2023-03-13T01:18:41.177Z,99.90
2023-03-13T01:21:10.820Z,99.12
2023-03-13T01:23:38.769Z,99.96
2023-03-13T01:26:08.196Z,99.68
2023-03-13T01:28:37.377Z,99.67
2023-03-13T01:31:12.674Z,99.66
2023-03-13T01:33:42.409Z,99.73
2023-03-13T01:36:10.919Z,99.66
2023-03-13T01:38:40.185Z,100.00
2023-03-13T01:41:10.197Z,100.00
2023-03-13T01:43:38.636Z,100.00
2023-03-13T01:46:14.605Z,100.00
2023-03-13T01:48:55.020Z,100.00
2023-03-13T01:51:27.719Z,100.00
2023-03-13T01:54:02.878Z,100.00
2023-03-13T01:56:37.402Z,100.00
2023-03-13T01:59:07.804Z,100.00
2023-03-13T02:01:36.318Z,100.00
2023-03-13T02:04:07.582Z,100.00
2023-03-13T02:06:39.601Z,100.00
2023-03-13T02:09:11.049Z,100.00
2023-03-13T02:11:47.268Z,100.00
2023-03-13T02:14:16.861Z,100.00
2023-03-13T02:16:48.896Z,100.00
2023-03-13T02:19:25.631Z,100.00
2023-03-13T02:22:01.440Z,100.00
2023-03-13T02:24:36.788Z,100.00
2023-03-13T02:27:06.320Z,100.00
2023-03-13T02:29:38.356Z,100.00
2023-03-13T02:32:06.986Z,100.00
2023-03-13T02:34:36.561Z,100.00
2023-03-13T02:37:07.706Z,100.00
2023-03-13T02:39:36.468Z,100.00
2023-03-13T02:42:06.531Z,100.00
2023-03-13T02:44:39.939Z,100.00
2023-03-13T02:47:10.063Z,100.00
2023-03-13T02:49:38.348Z,100.00
2023-03-13T02:52:13.927Z,100.00
2023-03-13T02:54:46.765Z,100.00
2023-03-13T02:57:17.185Z,100.00
2023-03-13T02:59:44.994Z,100.00
2023-03-13T03:02:12.931Z,100.00
2023-03-13T03:04:40.798Z,100.00
2023-03-13T03:07:10.971Z,100.00
2023-03-13T03:09:38.967Z,100.00
2023-03-13T03:12:11.856Z,100.00
2023-03-13T03:14:41.912Z,100.00
2023-03-13T03:17:09.753Z,100.00
2023-03-13T03:19:37.552Z,100.00
2023-03-13T03:22:06.263Z,100.00
2023-03-13T03:24:34.489Z,100.00
2023-03-13T03:27:02.683Z,100.00
2023-03-13T03:29:37.909Z,100.00
2023-03-13T03:32:07.889Z,100.00
2023-03-13T03:34:35.828Z,100.00
2023-03-13T03:37:03.830Z,100.00
2023-03-13T03:39:31.724Z,100.00
2023-03-13T03:42:00.179Z,100.00
2023-03-13T03:44:28.371Z,100.00
2023-03-13T03:46:59.420Z,100.00
2023-03-13T03:49:32.334Z,100.00
2023-03-13T03:52:00.685Z,100.00
2023-03-13T03:54:33.813Z,100.00
2023-03-13T03:57:02.014Z,100.00
2023-03-13T03:59:30.008Z,100.00
2023-03-13T04:02:00.415Z,100.00
2023-03-13T04:04:31.827Z,100.00
2023-03-13T04:07:19.940Z,100.00
2023-03-13T04:09:47.993Z,100.00
2023-03-13T04:12:23.179Z,100.00
2023-03-13T04:14:53.680Z,100.00
2023-03-13T04:17:22.450Z,100.00
2023-03-13T04:19:51.773Z,100.00
2023-03-13T04:22:19.599Z,100.00
2023-03-13T04:24:51.556Z,100.00
2023-03-13T04:27:21.277Z,100.00
2023-03-13T04:29:50.420Z,100.00
2023-03-13T04:32:36.669Z,100.00
2023-03-13T04:35:26.191Z,100.00
2023-03-13T04:38:07.074Z,100.00
2023-03-13T04:40:51.063Z,100.00
2023-03-13T04:43:39.232Z,100.00
2023-03-13T04:46:18.493Z,100.00
2023-03-13T04:48:49.297Z,100.00
2023-03-13T04:51:37.503Z,100.00
2023-03-13T04:54:37.588Z,100.00
2023-03-13T04:57:06.038Z,100.00
2023-03-13T04:59:40.308Z,100.00
2023-03-13T05:02:40.797Z,100.00
2023-03-13T05:05:36.271Z,100.00
2023-03-13T05:08:38.400Z,100.00
2023-03-13T05:11:26.700Z,100.00
2023-03-13T05:14:20.390Z,100.00
2023-03-13T05:17:08.334Z,100.00
2023-03-13T05:20:08.184Z,100.00
2023-03-13T05:22:50.977Z,100.00
2023-03-13T05:25:35.469Z,100.00
2023-03-13T05:28:18.816Z,100.00
2023-03-13T05:30:49.639Z,100.00
2023-03-13T05:33:29.711Z,100.00
2023-03-13T05:36:19.722Z,100.00
2023-03-13T05:39:03.891Z,100.00
2023-03-13T05:42:05.761Z,100.00
2023-03-13T05:44:52.224Z,100.00
2023-03-13T05:47:46.188Z,100.00
2023-03-13T05:50:32.857Z,100.00
2023-03-13T05:53:26.894Z,100.00
2023-03-13T05:56:09.696Z,100.00
2023-03-13T05:59:04.891Z,100.00
2023-03-13T06:01:56.117Z,100.00
2023-03-13T06:04:46.055Z,100.00
2023-03-13T06:07:14.237Z,100.00
2023-03-13T06:09:42.110Z,100.00
2023-03-13T06:12:11.707Z,100.00
2023-03-13T06:14:41.761Z,100.00
2023-03-13T06:17:12.367Z,100.00
2023-03-13T06:19:40.364Z,100.00
2023-03-13T06:22:08.423Z,100.00
2023-03-13T06:24:36.419Z,100.00
2023-03-13T06:27:04.806Z,100.00
2023-03-13T06:29:32.659Z,100.00
2023-03-13T06:32:01.925Z,100.00
2023-03-13T06:34:29.804Z,100.00
2023-03-13T06:36:58.731Z,100.00
2023-03-13T06:39:26.548Z,100.00
2023-03-13T06:41:54.331Z,100.00
2023-03-13T06:44:22.266Z,100.00
2023-03-13T06:46:50.073Z,100.00
2023-03-13T06:49:19.294Z,100.00
2023-03-13T06:51:47.174Z,100.00
2023-03-13T06:54:14.992Z,100.00
2023-03-13T06:56:42.893Z,100.00
2023-03-13T06:59:11.472Z,100.00
2023-03-13T07:01:39.309Z,100.00
2023-03-13T07:04:07.187Z,100.00
2023-03-13T07:06:36.407Z,100.00
2023-03-13T07:09:05.092Z,100.00
2023-03-13T07:11:33.338Z,100.00
2023-03-13T07:14:15.179Z,100.00
2023-03-13T07:16:44.238Z,100.00
2023-03-13T07:19:12.502Z,100.00
2023-03-13T07:21:41.950Z,100.00
2023-03-13T07:24:09.946Z,100.00
2023-03-13T07:26:38.816Z,100.00
2023-03-13T07:29:06.885Z,100.00
2023-03-13T07:31:35.271Z,100.00
2023-03-13T07:34:03.211Z,100.00
2023-03-13T07:36:31.259Z,100.00
2023-03-13T07:39:00.436Z,100.00
2023-03-13T07:41:28.364Z,100.00
2023-03-13T07:43:56.976Z,100.00
2023-03-13T07:46:24.909Z,100.00
2023-03-13T07:48:55.151Z,100.00
2023-03-13T07:51:36.905Z,100.00
2023-03-13T07:54:10.392Z,100.00
2023-03-13T07:56:38.250Z,100.00
2023-03-13T07:59:06.775Z,100.00
2023-03-13T08:01:34.977Z,100.00
2023-03-13T08:04:03.632Z,100.00
2023-03-13T08:06:34.221Z,100.00
2023-03-13T08:09:02.881Z,100.00
2023-03-13T08:11:32.094Z,100.00
2023-03-13T08:14:00.256Z,100.00
2023-03-13T08:16:30.134Z,100.00
2023-03-13T08:18:59.820Z,100.00
2023-03-13T08:21:29.745Z,100.00
2023-03-13T08:23:59.198Z,100.00
2023-03-13T08:26:28.655Z,100.00
2023-03-13T08:28:59.678Z,100.00
2023-03-13T08:31:29.243Z,100.00
2023-03-13T08:33:57.496Z,100.00
2023-03-13T08:36:26.943Z,100.00
2023-03-13T08:38:56.710Z,100.00
2023-03-13T08:41:26.062Z,100.00
2023-03-13T08:43:54.223Z,100.00
2023-03-13T08:46:23.609Z,100.00
2023-03-13T08:48:52.262Z,100.00
2023-03-13T08:51:22.170Z,100.00
2023-03-13T08:53:50.971Z,100.00
2023-03-13T08:56:21.098Z,100.00
2023-03-13T08:58:51.017Z,100.00
2023-03-13T09:01:19.105Z,100.00
2023-03-13T09:03:48.623Z,100.00
2023-03-13T09:06:16.630Z,100.00
2023-03-13T09:08:45.059Z,100.00
2023-03-13T09:11:14.873Z,100.00
2023-03-13T09:13:44.678Z,100.00
2023-03-13T09:16:14.909Z,100.00
2023-03-13T09:18:43.958Z,100.00
2023-03-13T09:21:15.198Z,100.00
2023-03-13T09:23:43.362Z,100.00
2023-03-13T09:26:11.680Z,100.00
2023-03-13T09:28:39.525Z,100.00
2023-03-13T09:31:08.741Z,100.00
2023-03-13T09:33:37.442Z,100.00
2023-03-13T09:36:06.241Z,100.00
2023-03-13T09:38:36.039Z,100.00
2023-03-13T09:41:15.662Z,100.00
2023-03-13T09:43:48.985Z,100.00
2023-03-13T09:46:23.497Z,100.00
2023-03-13T09:48:57.200Z,100.00
2023-03-13T09:51:29.656Z,100.00
2023-03-13T09:54:03.353Z,100.00
2023-03-13T09:56:38.199Z,100.00
2023-03-13T09:59:14.988Z,100.00
2023-03-13T10:01:45.228Z,100.00
2023-03-13T10:04:21.821Z,100.00
2023-03-13T10:06:52.047Z,100.00
2023-03-13T10:09:22.406Z,100.00
2023-03-13T10:11:54.089Z,100.00
2023-03-13T10:14:28.283Z,100.00
2023-03-13T10:17:01.605Z,100.00
2023-03-13T10:19:34.103Z,100.00
2023-03-13T10:22:05.248Z,100.00
2023-03-13T10:24:39.161Z,100.00
2023-03-13T10:27:07.096Z,100.00
2023-03-13T10:29:35.001Z,100.00
2023-03-13T10:32:05.830Z,100.00
2023-03-13T10:34:49.850Z,100.00
2023-03-13T10:37:21.911Z,100.00
2023-03-13T10:39:51.214Z,100.00
2023-03-13T10:42:25.267Z,100.00
2023-03-13T10:44:58.988Z,100.00
2023-03-13T10:47:27.073Z,100.00
2023-03-13T10:49:58.753Z,100.00
2023-03-13T10:52:34.078Z,100.00
2023-03-13T10:55:06.270Z,100.00
2023-03-13T10:57:36.092Z,100.00
2023-03-13T11:00:09.791Z,100.00
2023-03-13T11:02:39.946Z,100.00
2023-03-13T11:05:32.495Z,100.00
2023-03-13T11:08:13.168Z,99.81
2023-03-13T11:10:54.703Z,99.56
2023-03-13T11:13:38.383Z,99.71
2023-03-13T11:16:21.476Z,99.84
2023-03-13T11:19:06.477Z,99.52
2023-03-13T11:21:43.033Z,97.73
2023-03-13T11:24:16.573Z,97.71
2023-03-13T11:27:04.236Z,98.65
2023-03-13T11:29:44.618Z,99.81
2023-03-13T11:32:23.493Z,97.85
2023-03-13T11:34:55.280Z,97.73
2023-03-13T11:37:24.435Z,98.80
2023-03-13T11:40:00.293Z,98.06
2023-03-13T11:43:06.562Z,97.22
2023-03-13T11:45:53.647Z,97.13
2023-03-13T11:48:38.940Z,98.03
2023-03-13T11:51:17.086Z,96.39
2023-03-13T11:54:06.821Z,96.41
2023-03-13T11:56:43.013Z,99.07
2023-03-13T11:59:27.365Z,93.71
2023-03-13T12:01:59.761Z,94.02
2023-03-13T12:04:33.435Z,95.74
2023-03-13T12:07:06.781Z,95.52
2023-03-13T12:09:41.917Z,92.08
2023-03-13T12:12:19.969Z,92.02
2023-03-13T12:14:54.559Z,90.81
2023-03-13T12:17:33.328Z,88.52
2023-03-13T12:20:09.145Z,85.88
2023-03-13T12:22:41.451Z,87.85
2023-03-13T12:25:16.502Z,86.80
2023-03-13T12:27:48.890Z,88.10
2023-03-13T12:30:28.644Z,84.50
2023-03-13T12:33:01.300Z,83.99
2023-03-13T12:35:33.260Z,85.10
2023-03-13T12:38:09.594Z,84.48
2023-03-13T12:40:46.043Z,85.12
2023-03-13T12:43:20.057Z,82.56
2023-03-13T12:46:05.683Z,83.10
2023-03-13T12:49:01.383Z,79.82
2023-03-13T12:51:45.651Z,79.60
2023-03-13T12:54:32.034Z,80.69
2023-03-13T12:57:14.195Z,78.92
2023-03-13T12:59:44.584Z,81.24
2023-03-13T13:02:20.491Z,78.79
2023-03-13T13:04:50.851Z,77.90
2023-03-13T13:07:26.711Z,79.34
2023-03-13T13:10:05.886Z,78.17
2023-03-13T13:12:33.768Z,75.57
2023-03-13T13:15:16.693Z,75.64
2023-03-13T13:18:04.732Z,77.83
2023-03-13T13:20:39.512Z,72.75
2023-03-13T13:23:39.404Z,75.01
2023-03-13T13:26:46.653Z,76.70
2023-03-13T13:29:59.060Z,72.60
2023-03-13T13:32:32.517Z,72.99
2023-03-13T13:35:06.757Z,72.60
2023-03-13T13:37:35.405Z,72.85
2023-03-13T13:40:23.147Z,73.11
2023-03-13T13:42:53.383Z,72.05
2023-03-13T13:45:28.615Z,71.56
2023-03-13T13:48:23.068Z,73.42
2023-03-13T13:51:33.546Z,73.81
2023-03-13T13:54:04.008Z,75.59
2023-03-13T13:56:47.304Z,72.47
2023-03-13T13:59:27.268Z,71.23
2023-03-13T14:02:18.010Z,69.55
2023-03-13T14:04:50.658Z,72.22
2023-03-13T14:07:21.948Z,69.93
2023-03-13T14:10:00.928Z,70.77
2023-03-13T14:12:31.250Z,71.56
2023-03-13T14:15:22.838Z,69.72
2023-03-13T14:17:52.782Z,71.11
2023-03-13T14:20:29.985Z,70.77
2023-03-13T14:23:01.551Z,71.92
2023-03-13T14:25:43.717Z,70.44
2023-03-13T14:28:20.460Z,72.90
2023-03-13T14:30:50.807Z,73.26
2023-03-13T14:33:19.145Z,71.46
2023-03-13T14:35:48.135Z,72.95
2023-03-13T14:38:22.014Z,71.10
2023-03-13T14:40:52.150Z,72.50
2023-03-13T14:43:23.417Z,72.80
2023-03-13T14:45:51.844Z,73.73
2023-03-13T14:48:23.692Z,73.35
2023-03-13T14:51:05.431Z,75.50
2023-03-13T14:53:41.803Z,72.22
2023-03-13T14:56:19.252Z,71.46
2023-03-13T14:58:48.575Z,71.38
2023-03-13T15:01:26.528Z,71.74
2023-03-13T15:03:54.593Z,70.98
2023-03-13T15:06:23.913Z,73.45
2023-03-13T15:09:16.979Z,71.76
2023-03-13T15:11:55.809Z,72.38
2023-03-13T15:14:36.244Z,73.20
2023-03-13T15:17:04.963Z,73.49
2023-03-13T15:19:33.166Z,72.37
2023-03-13T15:22:00.978Z,71.93
2023-03-13T15:24:28.870Z,72.52
2023-03-13T15:26:58.089Z,71.66
2023-03-13T15:29:25.857Z,73.78
2023-03-13T15:31:53.818Z,72.15
2023-03-13T15:34:25.348Z,72.63
2023-03-13T15:36:53.156Z,72.30
2023-03-13T15:39:22.179Z,73.16
2023-03-13T15:41:49.957Z,72.37
2023-03-13T15:44:19.386Z,73.49
2023-03-13T15:46:48.039Z,72.93
2023-03-13T15:49:16.020Z,71.79
2023-03-13T15:51:43.838Z,72.06
2023-03-13T15:54:11.650Z,73.99
2023-03-13T15:56:40.184Z,72.88
2023-03-13T15:59:12.716Z,71.54
2023-03-13T16:01:43.316Z,72.41
2023-03-13T16:04:11.495Z,71.86
2023-03-13T16:06:39.408Z,75.10
2023-03-13T16:09:08.343Z,78.21
2023-03-13T16:11:36.204Z,77.09
2023-03-13T16:14:04.115Z,78.40
2023-03-13T16:16:37.162Z,78.50
2023-03-13T16:19:07.704Z,78.67
2023-03-13T16:21:36.203Z,79.41
2023-03-13T16:24:04.308Z,79.56
2023-03-13T16:26:33.042Z,78.91
2023-03-13T16:29:01.076Z,79.19
2023-03-13T16:31:31.080Z,80.96
2023-03-13T16:34:00.117Z,81.21
2023-03-13T16:36:31.577Z,80.57
2023-03-13T16:39:00.629Z,82.00
2023-03-13T16:41:30.208Z,82.99
2023-03-13T16:43:58.119Z,83.48
2023-03-13T16:46:28.837Z,84.74
2023-03-13T16:48:58.355Z,85.18
2023-03-13T16:51:27.660Z,84.47
2023-03-13T16:53:59.767Z,85.95
2023-03-13T16:56:31.082Z,86.34
2023-03-13T16:58:59.830Z,85.90
2023-03-13T17:01:28.984Z,84.48
2023-03-13T17:03:57.351Z,85.70
2023-03-13T17:06:28.320Z,85.34
2023-03-13T17:08:58.185Z,85.14
2023-03-13T17:11:26.413Z,85.48
2023-03-13T17:13:54.792Z,84.67
2023-03-13T17:16:24.462Z,84.00
2023-03-13T17:18:54.550Z,84.20
2023-03-13T17:21:25.887Z,83.85
2023-03-13T17:23:54.381Z,84.67
2023-03-13T17:26:25.173Z,83.39
2023-03-13T17:28:55.469Z,84.69
2023-03-13T17:31:23.695Z,84.09
2023-03-13T17:33:51.657Z,84.37
2023-03-13T17:36:21.914Z,83.80
2023-03-13T17:38:50.864Z,83.84
2023-03-13T17:41:20.565Z,83.62
2023-03-13T17:43:50.329Z,84.48
2023-03-13T17:46:21.008Z,83.61
2023-03-13T17:48:50.910Z,84.98
2023-03-13T17:51:21.640Z,84.58
2023-03-13T17:53:50.420Z,84.14
2023-03-13T17:56:21.144Z,85.95
2023-03-13T17:58:52.075Z,85.69
2023-03-13T18:01:22.795Z,86.06
2023-03-13T18:03:51.105Z,86.05
2023-03-13T18:06:22.275Z,86.72
2023-03-13T18:08:51.562Z,88.08
2023-03-13T18:11:19.819Z,88.03
2023-03-13T18:13:48.409Z,88.16
2023-03-13T18:16:22.061Z,88.56
2023-03-13T18:18:49.960Z,88.83
2023-03-13T18:21:18.075Z,88.83
2023-03-13T18:23:45.966Z,88.69
2023-03-13T18:26:30.491Z,89.71
2023-03-13T18:29:01.104Z,89.98
2023-03-13T18:31:32.315Z,90.58
2023-03-13T18:34:01.056Z,90.87
2023-03-13T18:36:29.312Z,91.38
2023-03-13T18:38:57.993Z,91.64
2023-03-13T18:41:26.489Z,92.96
2023-03-13T18:43:54.329Z,92.78
2023-03-13T18:46:24.805Z,92.59
2023-03-13T18:48:54.543Z,92.63
2023-03-13T18:51:25.242Z,93.03
2023-03-13T18:53:54.377Z,93.44
2023-03-13T18:56:25.178Z,94.46
2023-03-13T18:58:54.365Z,95.51
2023-03-13T19:01:24.201Z,97.69
2023-03-13T19:03:52.393Z,97.87
2023-03-13T19:06:24.463Z,100.00
2023-03-13T19:08:54.301Z,100.00
2023-03-13T19:11:25.607Z,100.00
2023-03-13T19:13:53.656Z,100.00
2023-03-13T19:16:23.710Z,100.00
2023-03-13T19:18:52.377Z,100.00
2023-03-13T19:21:24.030Z,100.00
2023-03-13T19:23:52.791Z,100.00
2023-03-13T19:26:27.222Z,100.00
2023-03-13T19:28:55.197Z,100.00
2023-03-13T19:31:23.707Z,100.00
2023-03-13T19:33:53.427Z,100.00
2023-03-13T19:36:24.243Z,100.00
2023-03-13T19:38:52.484Z,100.00
2023-03-13T19:41:20.392Z,100.00
2023-03-13T19:43:48.855Z,99.83
2023-03-13T19:46:22.498Z,99.59
2023-03-13T19:48:50.574Z,98.92
2023-03-13T19:51:18.426Z,98.28
2023-03-13T19:53:48.096Z,98.37
2023-03-13T19:56:18.147Z,97.75
2023-03-13T19:58:46.664Z,96.84
2023-03-13T20:01:17.800Z,97.18
2023-03-13T20:03:46.570Z,97.05
2023-03-13T20:06:17.939Z,98.09
2023-03-13T20:08:47.441Z,96.16
2023-03-13T20:11:16.817Z,95.47
2023-03-13T20:13:44.956Z,94.96
2023-03-13T20:16:13.613Z,93.73
2023-03-13T20:18:43.315Z,93.40
2023-03-13T20:21:12.138Z,92.79
2023-03-13T20:23:40.019Z,91.08
2023-03-13T20:26:12.549Z,91.19
2023-03-13T20:28:42.476Z,90.28
2023-03-13T20:31:11.309Z,89.66
2023-03-13T20:33:40.339Z,90.01
2023-03-13T20:36:11.540Z,89.72
2023-03-13T20:38:40.180Z,88.98
2023-03-13T20:41:09.733Z,88.95
2023-03-13T20:43:38.177Z,88.71
2023-03-13T20:46:08.122Z,88.05
2023-03-13T20:48:38.956Z,86.48
2023-03-13T20:51:08.323Z,86.34
2023-03-13T20:53:37.458Z,86.35
2023-03-13T20:56:07.012Z,86.75
2023-03-13T20:58:37.047Z,86.05
2023-03-13T21:01:06.749Z,85.47
2023-03-13T21:03:36.074Z,85.73
2023-03-13T21:06:10.084Z,85.23
2023-03-13T21:08:38.990Z,83.64
2023-03-13T21:11:13.206Z,83.95
2023-03-13T21:13:42.656Z,84.58
2023-03-13T21:16:11.137Z,83.42
2023-03-13T21:18:38.938Z,81.83
2023-03-13T21:21:08.725Z,82.13
2023-03-13T21:23:38.022Z,81.78
2023-03-13T21:26:06.298Z,81.58
2023-03-13T21:28:34.392Z,81.87
2023-03-13T21:31:11.017Z,82.04
2023-03-13T21:33:39.562Z,82.17
2023-03-13T21:36:08.517Z,81.52
2023-03-13T21:38:36.803Z,81.14
2023-03-13T21:41:08.970Z,80.70
2023-03-13T21:43:37.538Z,80.84
2023-03-13T21:46:06.041Z,80.05
2023-03-13T21:48:35.444Z,80.19
2023-03-13T21:51:03.302Z,79.79
2023-03-13T21:53:31.227Z,78.97
2023-03-13T21:55:59.319Z,79.24
2023-03-13T21:58:27.260Z,79.90
2023-03-13T22:00:55.975Z,79.31
2023-03-13T22:03:26.458Z,79.28
2023-03-13T22:05:56.127Z,79.99
2023-03-13T22:08:24.151Z,79.14
2023-03-13T22:10:54.793Z,78.87
2023-03-13T22:13:23.291Z,78.49
2023-03-13T22:15:52.700Z,79.43
2023-03-13T22:18:20.602Z,79.68
2023-03-13T22:20:48.569Z,79.38
2023-03-13T22:23:17.826Z,79.95
2023-03-13T22:25:47.988Z,79.08
2023-03-13T22:28:16.016Z,79.76
2023-03-13T22:30:45.002Z,80.75
2023-03-13T22:33:12.927Z,80.51
2023-03-13T22:35:41.089Z,79.54
2023-03-13T22:38:09.340Z,79.74
2023-03-13T22:40:38.679Z,79.57
2023-03-13T22:43:06.586Z,80.24
2023-03-13T22:45:34.511Z,79.42
2023-03-13T22:48:06.139Z,81.08
2023-03-13T22:50:34.151Z,80.79
2023-03-13T22:53:02.240Z,80.35
2023-03-13T22:55:30.642Z,81.97
2023-03-13T22:57:59.870Z,80.40
2023-03-13T23:00:27.767Z,81.44
2023-03-13T23:02:55.875Z,81.56
2023-03-13T23:05:23.996Z,82.45
2023-03-13T23:07:52.099Z,82.28
2023-03-13T23:10:20.334Z,82.90
2023-03-13T23:12:48.078Z,83.26
2023-03-13T23:15:17.838Z,82.63
2023-03-13T23:17:45.641Z,82.84
2023-03-13T23:20:14.038Z,83.12
2023-03-13T23:22:42.584Z,83.35
2023-03-13T23:25:12.083Z,84.56
2023-03-13T23:27:40.389Z,84.82
2023-03-13T23:30:12.037Z,84.13
2023-03-13T23:32:43.215Z,84.63
2023-03-13T23:35:12.782Z,85.00
2023-03-13T23:37:40.987Z,85.24
2023-03-13T23:40:11.844Z,85.77
2023-03-13T23:42:39.834Z,86.26
2023-03-13T23:45:09.221Z,86.20
2023-03-13T23:47:37.461Z,86.63
2023-03-13T23:50:07.418Z,86.58
2023-03-13T23:52:35.962Z,87.27
2023-03-13T23:55:04.407Z,87.48
2023-03-13T23:57:32.819Z,86.46
